Fair Oaks Springs, Mississippi
Current Conditions -  °F | °C
As of 4:53 PM on Sunday 21 Dec 2014 (Local Time) from KMCB Reporting Station
Overcast Overcast  
Wind Chill: 57°   Ceiling: 1900
Heat Index: 57°   Visibility: 10mi
Dew Point: 49°   Wind: 5mph
Humidity: 74%   Direction: 140°SE
Pressure: 29.99"   Gusts: NA
Location:  31.5898°N, 90.4722°W
Report Text: KMCB 212253Z AUTO 14004KT 10SM OVC019 14/09 A2999 RMK AO2 SLP153 T01390094
Loading
Personal Weather Stations






























Interactive Weather Map New forecast layout! Learn more

10-Day Weather Forecast

Advertisements
Track Severe Weather on mobile